Benson, United Kingdom

1:04 PM BST on August 26, 2016 (GMT +0100)
IOXFORDS9 | | Change Station

Elev 154 ft 51.58 °N, 1.14 °W | Updated 4 minutes ago

Partly Cloudy
Partly Cloudy
74.8 °F
Feels Like 78 °F
N
1.6
Wind Variable Wind from SW
Gusts 1.6 mph

Today
High -- | Low -- °F
--% Chance of Precip.
Yesterday
High -- | Low -- °F
Precip. -- in
Pressure 30.06 in
Visibility 6.2 miles
Clouds Few 4500 ft
Heat Index 78 °F
Dew Point 53 °F
Humidity 47%
Rainfall 0.00 in
Snow Depth Not available.
6:07 AM 8:03 PM
Waning Crescent, 35% visible
METAR EGUB 261150Z 32006KT 9999 FEW045 22/10 Q1018 BLU
Pressure 30.06 in
Visibility 6.2 miles
Clouds Few 4500 ft
Heat Index 78 °F
Dew Point 53 °F
Humidity 47%
Rainfall 0.00 in
Snow Depth Not available.
6:07 AM 8:03 PM
Waning Crescent, 35% visible
METAR EGUB 261150Z 32006KT 9999 FEW045 22/10 Q1018 BLU

10-Day Weather Forecast

×

Almanac

Astronomy

Aug. 26, 2016 Rise Set
Actual Time
Civil Twilight
Nautical Twilight
Astronomical Twilight
Moon
Length of Visible Light
Length of Day
Tomorrow will be .
, % of the Moon is Illuminated

Today's Extremes

Country Highs Country Lows

Community

WunderPhotos

Upload Photos

1,935,077 photos uploaded!

WunderBlog® & News

Nearby

Air Quality

  Air Quality AQ Index Pollutant
Not available.

Snow Depth

Station Depth Elevation

Earthquake Activity

City Distance Mag. Time & Date
Minimum magnitude displayed is 2.5.

Coastal Water Temperatures

Place Temperature

Stations

Nearby Weather Stations

Station Location Temp. Windchill Dew Point Humidity Wind Precip. Elev Updated Type